Valle Azzurra — ICEG — position and weather

sailwx.info

Track history (hours):
 
Tides and Currents Weather Stations Pressure Air Temp Water Temp Dewpoint Dewpoint Depression Visibility Wind Speed Wind Dir Waves Ship Positions

Valle Azzurra

Last reported at 2014-Aug-02 05:14 UTC. Time now 2014-Aug-28 05:23 UTC.
Position N 29°21' W 094°44'.
Warning: this ship's position is 26 days out of date.

Length 183 m; draft 11.3 m.

Type: Ship. MMSI: 247226600.

Date/timePositionNaut miles runAvg speedWind from/ knotsBaromVisibWave heightAir tempDewpointWater temp
2014-Aug-02 05:14N 29°21' W 094°44'7 9.7
2014-Aug-02 04:33N 29°23' W 094°52'  
2014-Jul-27 06:08N 24°36' W 079°60'6811.1
2014-Jul-27 00:03N 25°39' W 079°35'510.5
2014-Jul-26 23:33N 25°45' W 079°34'1110.3
2014-Jul-26 22:30N 25°55' W 079°32'1010.4
2014-Jul-26 21:33N 26°05' W 079°31'1010.5
2014-Jul-26 20:33N 26°15' W 079°29'1110.7
2014-Jul-26 19:33N 26°26' W 079°28'1110.8
2014-Jul-26 18:33N 26°37' W 079°27'1111.0
2014-Jul-26 17:33N 26°48' W 079°26'  
2014-Jul-24 03:19N 38°15' W 071°00'1114.2
2014-Jul-24 02:32N 38°24' W 070°52'1414.7
2014-Jul-24 01:33N 38°36' W 070°43'1414.4
2014-Jul-24 00:33N 38°48' W 070°33'1414.0
2014-Jul-23 23:33N 39°00' W 070°23'1413.7
2014-Jul-23 22:33N 39°11' W 070°13'1413.4
2014-Jul-23 21:33N 39°23' W 070°03'1313.5
2014-Jul-23 20:33N 39°34' W 069°54'1413.7
2014-Jul-23 19:34N 39°45' W 069°44'1413.7
2014-Jul-23 18:33N 39°57' W 069°34'1313.4
2014-Jul-23 17:33N 40°08' W 069°24'1413.6
2014-Jul-23 16:34N 40°19' W 069°15'1413.6
2014-Jul-23 15:33N 40°32' W 069°08'1313.4
2014-Jul-23 14:33N 40°45' W 069°04'1313.0
2014-Jul-23 13:34N 40°58' W 069°09'1312.7
2014-Jul-23 12:34N 41°09' W 069°16'1312.3
2014-Jul-23 11:31N 41°21' W 069°24'1111.8
2014-Jul-23 10:33N 41°31' W 069°31'1312.8
2014-Jul-23 09:33N 41°42' W 069°38'1413.4
2014-Jul-23 08:31N 41°55' W 069°47'1513.4
2014-Jul-23 07:24N 42°08' W 069°56'1312.8
2014-Jul-23 06:21N 42°17' W 070°09'  
Track history (hours):
 
Tides and Currents Weather Stations Pressure Air Temp Water Temp Dewpoint Dewpoint Depression Visibility Wind Speed Wind Dir Waves Ship Positions

Valle Azzurra

Last reported at 2014-Aug-02 05:14 UTC. Time now 2014-Aug-28 05:23 UTC.
Position N 29°21' W 094°44'.
Warning: this ship's position is 26 days out of date.

Length 183 m; draft 11.3 m.

Type: Ship. MMSI: 247226600.

Date/timePositionNaut miles runAvg speedWind from/ knotsBaromVisibWave heightAir tempDewpointWater temp
2014-Aug-02 05:14N 29°21' W 094°44'7 9.7
2014-Aug-02 04:33N 29°23' W 094°52'  
2014-Jul-27 06:08N 24°36' W 079°60'6811.1
2014-Jul-27 00:03N 25°39' W 079°35'510.5
2014-Jul-26 23:33N 25°45' W 079°34'1110.3
2014-Jul-26 22:30N 25°55' W 079°32'1010.4
2014-Jul-26 21:33N 26°05' W 079°31'1010.5
2014-Jul-26 20:33N 26°15' W 079°29'1110.7
2014-Jul-26 19:33N 26°26' W 079°28'1110.8
2014-Jul-26 18:33N 26°37' W 079°27'1111.0
2014-Jul-26 17:33N 26°48' W 079°26'  
2014-Jul-24 03:19N 38°15' W 071°00'1114.2
2014-Jul-24 02:32N 38°24' W 070°52'1414.7
2014-Jul-24 01:33N 38°36' W 070°43'1414.4
2014-Jul-24 00:33N 38°48' W 070°33'1414.0
2014-Jul-23 23:33N 39°00' W 070°23'1413.7
2014-Jul-23 22:33N 39°11' W 070°13'1413.4
2014-Jul-23 21:33N 39°23' W 070°03'1313.5
2014-Jul-23 20:33N 39°34' W 069°54'1413.7
2014-Jul-23 19:34N 39°45' W 069°44'1413.7
2014-Jul-23 18:33N 39°57' W 069°34'1313.4
2014-Jul-23 17:33N 40°08' W 069°24'1413.6
2014-Jul-23 16:34N 40°19' W 069°15'1413.6
2014-Jul-23 15:33N 40°32' W 069°08'1313.4
2014-Jul-23 14:33N 40°45' W 069°04'1313.0
2014-Jul-23 13:34N 40°58' W 069°09'1312.7
2014-Jul-23 12:34N 41°09' W 069°16'1312.3
2014-Jul-23 11:31N 41°21' W 069°24'1111.8
2014-Jul-23 10:33N 41°31' W 069°31'1312.8
2014-Jul-23 09:33N 41°42' W 069°38'1413.4
2014-Jul-23 08:31N 41°55' W 069°47'1513.4
2014-Jul-23 07:24N 42°08' W 069°56'1312.8
2014-Jul-23 06:21N 42°17' W 070°09'  

Dump ship's entire track history